Time;durP1;ratioP1;P1;durP2;ratioP2;P2;SDS_P1;SDS_P2;PMS_P1;PMS_P2;Temp;Humidity;BMP_temperature;BMP_pressure;BME280_temperature;BME280_humidity;BME280_pressure;Samples;Min_cycle;Max_cycle;Signal;HPM_P1;HPM_P2
2022/11/06 00:01:21;;;;;;;;;;;9.60;78.10;;;;;;5062777;28;19916;-82
2022/11/06 00:03:46;;;;;;;;;;;9.60;77.90;;;;;;5061055;28;19909;-82
2022/11/06 00:08:58;;;;;;;;;;;9.60;77.80;;;;;;5070619;28;19974;-82
2022/11/06 00:11:24;;;;;;;;;;;9.60;78.10;;;;;;5083246;28;20399;-81
2022/11/06 00:13:51;;;;;;;;;;;9.60;78.40;;;;;;5093206;28;19977;-81
2022/11/06 00:16:17;;;;;;;;;;;9.70;77.80;;;;;;5060474;28;19935;-81
2022/11/06 00:18:43;;;;;;;;;;;9.60;78.00;;;;;;5076882;28;19912;-82
2022/11/06 00:21:09;;;;;;;;;;;9.70;77.70;;;;;;5061678;28;19935;-81
2022/11/06 00:23:35;;;;;;;;;;;9.70;78.00;;;;;;5059370;28;19917;-81
2022/11/06 00:26:09;;;;;;;;;;;9.80;77.60;;;;;;5089623;22;19920;-81
2022/11/06 00:28:35;;;;;;;;;;;9.80;77.20;;;;;;5058614;28;19928;-81
2022/11/06 00:31:30;;;;;;;;;;;9.90;77.00;;;;;;5100311;28;19915;-81
2022/11/06 00:34:12;;;;;;;;;;;9.90;77.20;;;;;;5079813;28;20002;-80
2022/11/06 00:36:41;;;;;;;;;;;9.80;77.10;;;;;;5095174;28;19930;-80
2022/11/06 00:39:19;;;;;;;;;;;9.70;77.40;;;;;;5099076;28;19999;-80
2022/11/06 00:41:50;;;;;;;;;;;9.90;76.90;;;;;;5095852;28;20291;-81
2022/11/06 00:51:09;;;;;;;;;;;9.70;77.40;;;;;;4993170;28;20471;-80
2022/11/06 00:53:52;;;;;;;;;;;9.70;77.80;;;;;;5099767;28;19913;-80
2022/11/06 00:56:18;;;;;;;;;;;9.90;77.00;;;;;;5104785;22;20076;-81
2022/11/06 00:59:10;;;;;;;;;;;9.70;77.40;;;;;;5096791;28;19916;-81
2022/11/06 01:02:21;;;;;;;;;;;9.70;77.00;;;;;;5075360;28;19927;-80
2022/11/06 01:04:47;;;;;;;;;;;9.60;78.10;;;;;;5082316;28;19912;-81
2022/11/06 01:07:22;;;;;;;;;;;9.80;76.60;;;;;;5071957;28;19912;-80
2022/11/06 01:09:48;;;;;;;;;;;9.90;77.10;;;;;;5060433;28;19912;-80
2022/11/06 01:12:19;;;;;;;;;;;9.80;76.60;;;;;;5081482;28;19915;-80
2022/11/06 01:14:46;;;;;;;;;;;9.70;76.40;;;;;;5056813;28;20530;-81
2022/11/06 01:17:12;;;;;;;;;;;9.60;76.80;;;;;;5060787;28;19919;-80
2022/11/06 01:20:09;;;;;;;;;;;9.60;76.90;;;;;;5069327;28;19951;-81
2022/11/06 01:22:38;;;;;;;;;;;9.60;77.10;;;;;;5069491;28;19920;-80
2022/11/06 01:25:11;;;;;;;;;;;9.70;76.90;;;;;;5043663;28;19924;-81
2022/11/06 01:27:57;;;;;;;;;;;9.70;77.00;;;;;;5078088;28;19922;-80
2022/11/06 01:33:16;;;;;;;;;;;9.60;76.90;;;;;;5056702;28;19915;-80
2022/11/06 01:35:49;;;;;;;;;;;9.60;77.20;;;;;;5064384;28;19909;-80
2022/11/06 01:38:15;;;;;;;;;;;9.60;77.30;;;;;;5063077;28;19913;-80
2022/11/06 01:40:48;;;;;;;;;;;9.70;77.00;;;;;;5080150;28;19955;-80
2022/11/06 01:43:49;;;;;;;;;;;9.70;76.70;;;;;;5074231;28;19958;-80
2022/11/06 01:46:33;;;;;;;;;;;9.90;76.30;;;;;;5076572;28;20011;-80
2022/11/06 01:48:58;;;;;;;;;;;9.80;76.70;;;;;;5075785;28;19942;-80
2022/11/06 01:51:28;;;;;;;;;;;9.60;76.80;;;;;;5065186;28;19908;-80
2022/11/06 01:53:56;;;;;;;;;;;9.60;76.90;;;;;;5083095;28;19932;-80
2022/11/06 01:56:28;;;;;;;;;;;9.70;76.70;;;;;;5062409;28;19914;-80
2022/11/06 01:58:54;;;;;;;;;;;9.60;77.00;;;;;;5071761;28;19939;-80
2022/11/06 02:01:41;;;;;;;;;;;;;;;;;;;;;
2022/11/06 02:04:28;;;;;;;;;;;9.70;77.10;;;;;;5061052;28;19977;-80
2022/11/06 02:07:03;;;;;;;;;;;9.60;77.10;;;;;;5052584;28;19919;-80
2022/11/06 02:09:38;;;;;;;;;;;9.50;77.10;;;;;;5064702;28;20593;-80
2022/11/06 02:12:12;;;;;;;;;;;9.40;77.20;;;;;;5062836;28;19924;-80
2022/11/06 02:18:13;;;;;;;;;;;9.50;77.10;;;;;;5081335;28;19911;-80
2022/11/06 02:20:53;;;;;;;;;;;9.40;77.50;;;;;;5068121;28;20581;-80
2022/11/06 02:23:48;;;;;;;;;;;9.50;77.60;;;;;;5082786;28;19909;-80
2022/11/06 02:26:35;;;;;;;;;;;9.60;77.00;;;;;;5085909;28;19912;-80
2022/11/06 02:32:40;;;;;;;;;;;9.50;77.00;;;;;;5068872;28;19915;-80
2022/11/06 02:35:24;;;;;;;;;;;9.50;77.20;;;;;;5070899;28;19912;-80
2022/11/06 02:37:54;;;;;;;;;;;9.60;76.70;;;;;;5060879;28;19912;-80
2022/11/06 02:40:58;;;;;;;;;;;9.50;76.90;;;;;;5067441;28;19913;-80
2022/11/06 02:46:29;;;;;;;;;;;9.40;77.20;;;;;;5087208;22;19940;-81
2022/11/06 02:48:57;;;;;;;;;;;9.30;77.80;;;;;;5069683;28;19913;-80
2022/11/06 02:51:25;;;;;;;;;;;9.40;77.60;;;;;;5082540;28;19931;-82
2022/11/06 02:53:51;;;;;;;;;;;9.50;77.30;;;;;;5100428;28;19951;-80
2022/11/06 02:56:19;;;;;;;;;;;9.60;76.60;;;;;;5102285;28;19912;-80
2022/11/06 02:58:52;;;;;;;;;;;9.60;76.70;;;;;;5082772;28;19919;-80
2022/11/06 03:01:39;;;;;;;;;;;9.60;76.60;;;;;;5104155;28;20399;-80
2022/11/06 03:04:30;;;;;;;;;;;9.60;76.40;;;;;;5108348;28;19919;-81
2022/11/06 03:07:00;;;;;;;;;;;9.50;76.70;;;;;;5080729;28;19920;-81
2022/11/06 03:09:27;;;;;;;;;;;9.60;76.90;;;;;;5096057;28;19916;-81
2022/11/06 03:11:59;;;;;;;;;;;9.50;76.80;;;;;;5081149;28;19912;-80
2022/11/06 03:14:31;;;;;;;;;;;9.40;76.90;;;;;;5085082;28;19923;-81
2022/11/06 03:16:57;;;;;;;;;;;9.30;77.20;;;;;;5099796;28;19941;-81
2022/11/06 03:19:26;;;;;;;;;;;9.20;77.40;;;;;;5065214;28;19912;-81
2022/11/06 03:21:57;;;;;;;;;;;9.30;77.30;;;;;;5094065;28;20366;-80
2022/11/06 03:24:46;;;;;;;;;;;9.30;77.60;;;;;;5098847;28;19912;-81
2022/11/06 03:27:14;;;;;;;;;;;9.30;77.30;;;;;;5088606;28;20284;-81
2022/11/06 03:29:42;;;;;;;;;;;9.30;77.10;;;;;;5090067;28;19974;-81
2022/11/06 03:32:22;;;;;;;;;;;9.20;77.50;;;;;;5082974;28;19961;-81
2022/11/06 03:35:13;;;;;;;;;;;9.20;77.60;;;;;;5091351;28;19912;-81
2022/11/06 03:37:43;;;;;;;;;;;9.20;77.80;;;;;;5059880;23;19925;-89
2022/11/06 03:40:13;;;;;;;;;;;9.30;77.90;;;;;;5051966;28;19924;-93
2022/11/06 03:42:39;;;;;;;;;;;9.30;78.20;;;;;;5058599;28;19909;-88
2022/11/06 03:45:07;;;;;;;;;;;9.30;77.90;;;;;;5055713;28;20334;-92
2022/11/06 03:47:36;;;;;;;;;;;9.30;77.50;;;;;;5038748;28;20327;-88
2022/11/06 03:50:06;;;;;;;;;;;9.30;77.50;;;;;;5021078;28;20003;-89
2022/11/06 03:52:34;;;;;;;;;;;9.10;78.30;;;;;;5018549;28;19921;-90
2022/11/06 03:55:08;;;;;;;;;;;9.10;78.40;;;;;;5034705;28;19917;-88
2022/11/06 03:57:43;;;;;;;;;;;9.10;78.10;;;;;;5037360;28;20333;-88
2022/11/06 04:00:10;;;;;;;;;;;9.10;78.60;;;;;;5038782;28;20286;-88
2022/11/06 04:02:37;;;;;;;;;;;9.20;78.20;;;;;;5038442;28;19988;-88
2022/11/06 04:05:05;;;;;;;;;;;9.30;77.90;;;;;;5039333;28;20333;-88
2022/11/06 04:07:40;;;;;;;;;;;9.30;77.60;;;;;;5039180;28;19966;-88
2022/11/06 04:15:50;;;;;;;;;;;9.10;78.60;;;;;;5063149;28;19962;-95
2022/11/06 04:18:17;;;;;;;;;;;9.10;78.50;;;;;;5055786;28;19936;-88
2022/11/06 04:23:37;;;;;;;;;;;9.20;78.20;;;;;;5055988;28;20372;-89
2022/11/06 04:26:35;;;;;;;;;;;9.20;78.70;;;;;;5036691;28;19994;-91
2022/11/06 04:29:27;;;;;;;;;;;9.20;78.30;;;;;;5024912;28;19913;-88
2022/11/06 04:32:01;;;;;;;;;;;9.20;77.90;;;;;;5023008;28;19908;-89
2022/11/06 04:34:26;;;;;;;;;;;9.20;77.90;;;;;;5051323;22;19932;-78
2022/11/06 04:37:00;;;;;;;;;;;9.30;77.90;;;;;;5072051;28;19923;-81
2022/11/06 04:39:37;;;;;;;;;;;9.30;78.10;;;;;;5093707;28;20363;-81
2022/11/06 04:42:09;;;;;;;;;;;9.20;78.00;;;;;;5077644;28;19916;-80
2022/11/06 04:44:37;;;;;;;;;;;9.10;78.20;;;;;;5083592;28;19912;-82
2022/11/06 04:47:07;;;;;;;;;;;9.10;78.90;;;;;;5075452;28;19994;-82
2022/11/06 04:49:34;;;;;;;;;;;9.10;79.30;;;;;;5085592;28;19939;-82
2022/11/06 04:52:01;;;;;;;;;;;9.10;79.40;;;;;;5079946;28;19909;-80
2022/11/06 04:54:26;;;;;;;;;;;9.20;78.70;;;;;;5076348;28;19909;-82
2022/11/06 04:56:55;;;;;;;;;;;9.10;78.70;;;;;;5095033;28;19919;-80
2022/11/06 04:59:21;;;;;;;;;;;9.30;78.40;;;;;;5097033;28;19916;-82
2022/11/06 05:01:46;;;;;;;;;;;9.20;78.40;;;;;;5103728;28;19914;-78
2022/11/06 05:04:12;;;;;;;;;;;9.10;79.20;;;;;;5059329;28;19920;-80
2022/11/06 05:06:37;;;;;;;;;;;9.20;79.00;;;;;;5084867;28;20392;-81
2022/11/06 05:09:03;;;;;;;;;;;9.30;77.90;;;;;;5087776;28;19916;-81
2022/11/06 05:11:28;;;;;;;;;;;9.10;78.90;;;;;;5093553;28;19908;-81
2022/11/06 05:13:54;;;;;;;;;;;9.10;78.60;;;;;;5092176;28;20376;-81
2022/11/06 05:16:19;;;;;;;;;;;9.10;78.50;;;;;;5081612;28;19918;-81
2022/11/06 05:18:44;;;;;;;;;;;9.20;78.70;;;;;;5091854;28;19919;-81
2022/11/06 05:23:54;;;;;;;;;;;9.10;78.50;;;;;;5096485;28;19959;-80
2022/11/06 05:26:20;;;;;;;;;;;9.00;78.90;;;;;;5091760;28;19912;-81
2022/11/06 05:28:45;;;;;;;;;;;9.00;79.10;;;;;;5089594;28;19946;-81
2022/11/06 05:31:10;;;;;;;;;;;8.90;79.30;;;;;;5092907;28;19912;-80
2022/11/06 05:33:36;;;;;;;;;;;8.90;79.20;;;;;;5082319;28;19923;-81
2022/11/06 05:36:02;;;;;;;;;;;8.90;79.70;;;;;;5065753;28;20017;-80
2022/11/06 05:38:28;;;;;;;;;;;8.90;79.60;;;;;;5071982;28;19912;-81
2022/11/06 05:40:53;;;;;;;;;;;8.90;79.80;;;;;;5083794;28;19916;-80
2022/11/06 05:43:19;;;;;;;;;;;8.90;79.40;;;;;;5066347;28;19919;-80
2022/11/06 05:45:44;;;;;;;;;;;8.80;79.70;;;;;;5059494;28;19995;-81
2022/11/06 05:48:09;;;;;;;;;;;8.80;80.10;;;;;;5078717;28;19912;-80
2022/11/06 05:50:35;;;;;;;;;;;8.90;80.10;;;;;;5091359;28;19934;-79
2022/11/06 05:53:00;;;;;;;;;;;8.90;79.80;;;;;;5090996;28;19912;-80
2022/11/06 05:55:26;;;;;;;;;;;9.00;79.60;;;;;;5072505;28;19912;-80
2022/11/06 05:57:51;;;;;;;;;;;9.00;79.60;;;;;;5067658;28;20277;-81
2022/11/06 06:00:17;;;;;;;;;;;8.90;79.90;;;;;;5092096;28;19920;-82
2022/11/06 06:02:42;;;;;;;;;;;8.80;80.20;;;;;;5070788;28;19967;-82
2022/11/06 06:05:08;;;;;;;;;;;9.00;80.10;;;;;;5094792;28;19912;-80
2022/11/06 06:07:33;;;;;;;;;;;9.00;79.20;;;;;;5094003;28;19916;-82
2022/11/06 06:09:59;;;;;;;;;;;8.80;79.70;;;;;;5095754;28;19946;-81
2022/11/06 06:12:25;;;;;;;;;;;8.80;80.20;;;;;;5106649;28;19924;-78
2022/11/06 06:14:53;;;;;;;;;;;8.90;80.00;;;;;;5105912;28;19926;-80
2022/11/06 06:17:19;;;;;;;;;;;8.90;80.00;;;;;;5086149;28;19997;-82
2022/11/06 06:19:45;;;;;;;;;;;8.80;80.00;;;;;;5072504;28;19916;-82
2022/11/06 06:22:10;;;;;;;;;;;9.10;79.60;;;;;;5092340;28;19943;-81
2022/11/06 06:24:36;;;;;;;;;;;9.00;79.40;;;;;;5076601;28;19916;-81
2022/11/06 06:27:02;;;;;;;;;;;9.00;79.60;;;;;;5093013;28;19938;-81
2022/11/06 06:29:28;;;;;;;;;;;8.90;79.60;;;;;;5089388;28;19912;-79
2022/11/06 06:31:53;;;;;;;;;;;8.80;79.70;;;;;;5093931;28;19912;-82
2022/11/06 06:34:18;;;;;;;;;;;8.80;80.00;;;;;;5094374;28;19916;-81
2022/11/06 06:36:47;;;;;;;;;;;8.90;79.60;;;;;;5075814;28;19916;-82
2022/11/06 06:39:13;;;;;;;;;;;8.90;79.70;;;;;;5077876;28;19912;-80
2022/11/06 06:41:38;;;;;;;;;;;8.90;80.00;;;;;;5109042;28;19912;-81
2022/11/06 06:44:03;;;;;;;;;;;8.90;79.90;;;;;;5100899;28;19980;-79
2022/11/06 06:46:29;;;;;;;;;;;9.10;79.60;;;;;;5076184;28;19912;-82
2022/11/06 06:48:54;;;;;;;;;;;9.00;79.40;;;;;;5087922;28;19958;-82
2022/11/06 06:51:20;;;;;;;;;;;9.10;79.80;;;;;;5094934;28;19930;-82
2022/11/06 06:53:45;;;;;;;;;;;9.10;79.70;;;;;;5088014;28;20179;-81
2022/11/06 06:56:11;;;;;;;;;;;9.00;79.30;;;;;;5091777;28;19941;-81
2022/11/06 06:58:36;;;;;;;;;;;9.00;79.50;;;;;;5093713;28;19956;-82
2022/11/06 07:01:03;;;;;;;;;;;8.90;79.40;;;;;;5093628;28;19959;-81
2022/11/06 07:03:29;;;;;;;;;;;8.90;79.70;;;;;;5089138;28;20441;-82
2022/11/06 07:05:55;;;;;;;;;;;9.10;79.60;;;;;;5078662;28;19944;-81
2022/11/06 07:08:21;;;;;;;;;;;9.10;79.10;;;;;;5069415;28;20301;-82
2022/11/06 07:10:46;;;;;;;;;;;9.10;79.20;;;;;;5093596;28;19918;-83
2022/11/06 07:13:12;;;;;;;;;;;9.20;78.80;;;;;;5068366;28;19966;-80
2022/11/06 07:15:37;;;;;;;;;;;9.10;79.00;;;;;;5071030;28;19950;-82
2022/11/06 07:18:06;;;;;;;;;;;9.10;79.10;;;;;;5077073;28;20408;-80
2022/11/06 07:20:31;;;;;;;;;;;9.10;79.10;;;;;;5086766;28;19924;-81
2022/11/06 07:22:57;;;;;;;;;;;9.30;78.60;;;;;;5083469;28;20284;-81
2022/11/06 07:25:23;;;;;;;;;;;9.10;78.70;;;;;;5094064;28;19912;-80
2022/11/06 07:27:48;;;;;;;;;;;9.10;79.20;;;;;;5078431;28;19951;-81
2022/11/06 07:30:14;;;;;;;;;;;9.20;78.70;;;;;;5095421;28;19979;-81
2022/11/06 07:32:39;;;;;;;;;;;9.20;78.80;;;;;;5095148;28;19919;-80
2022/11/06 07:35:05;;;;;;;;;;;9.20;78.80;;;;;;5091503;28;19961;-82
2022/11/06 07:37:30;;;;;;;;;;;9.30;78.60;;;;;;5078825;28;20011;-81
2022/11/06 07:39:56;;;;;;;;;;;9.30;79.00;;;;;;5097543;28;19947;-81
2022/11/06 07:42:21;;;;;;;;;;;9.50;78.20;;;;;;5077724;28;20290;-81
2022/11/06 07:44:46;;;;;;;;;;;9.50;77.80;;;;;;5096346;28;20399;-80
2022/11/06 07:47:12;;;;;;;;;;;9.50;77.80;;;;;;5096229;28;20523;-81
2022/11/06 07:49:37;;;;;;;;;;;9.40;78.20;;;;;;5076324;28;20365;-82
2022/11/06 07:52:03;;;;;;;;;;;9.50;78.30;;;;;;5096872;28;20396;-79
2022/11/06 07:54:29;;;;;;;;;;;9.50;78.50;;;;;;5083573;28;19962;-81
2022/11/06 07:56:54;;;;;;;;;;;9.60;78.10;;;;;;5084197;28;20405;-79
2022/11/06 07:59:20;;;;;;;;;;;9.70;77.70;;;;;;5070237;28;19927;-79
2022/11/06 08:01:45;;;;;;;;;;;9.60;77.90;;;;;;5094506;28;20384;-79
2022/11/06 08:04:10;;;;;;;;;;;9.60;78.20;;;;;;5092988;28;20003;-80
2022/11/06 08:06:36;;;;;;;;;;;9.70;78.10;;;;;;5089959;28;19916;-81
2022/11/06 08:09:07;;;;;;;;;;;9.70;77.60;;;;;;5086434;28;19913;-80
2022/11/06 08:11:33;;;;;;;;;;;9.90;77.20;;;;;;5057286;28;19908;-80
2022/11/06 08:13:59;;;;;;;;;;;10.00;77.20;;;;;;5093976;28;19912;-81
2022/11/06 08:16:24;;;;;;;;;;;9.90;77.30;;;;;;5071053;28;21400;-81
2022/11/06 08:18:50;;;;;;;;;;;10.00;76.90;;;;;;5072398;28;19973;-81
2022/11/06 08:21:15;;;;;;;;;;;10.00;76.80;;;;;;5077569;28;19919;-79
2022/11/06 08:23:41;;;;;;;;;;;9.90;77.10;;;;;;5105623;28;19924;-80
2022/11/06 08:26:06;;;;;;;;;;;10.00;77.30;;;;;;5093880;28;19916;-81
2022/11/06 08:28:32;;;;;;;;;;;10.00;77.20;;;;;;5085589;28;19913;-82
2022/11/06 08:31:01;;;;;;;;;;;10.00;77.60;;;;;;5073745;28;20373;-82
2022/11/06 08:33:26;;;;;;;;;;;10.10;77.80;;;;;;5075559;28;19943;-79
2022/11/06 08:35:52;;;;;;;;;;;10.20;76.90;;;;;;5078954;28;19924;-82
2022/11/06 08:38:18;;;;;;;;;;;10.20;77.10;;;;;;5111135;28;19900;-79
2022/11/06 08:40:43;;;;;;;;;;;10.20;76.80;;;;;;5088856;28;19924;-82
2022/11/06 08:43:09;;;;;;;;;;;10.20;76.70;;;;;;5078738;28;20334;-82
2022/11/06 08:45:35;;;;;;;;;;;10.10;76.90;;;;;;5078358;28;20379;-83
2022/11/06 08:48:02;;;;;;;;;;;10.10;77.10;;;;;;5077273;28;19918;-79
2022/11/06 08:50:28;;;;;;;;;;;10.20;76.90;;;;;;5096688;28;19999;-81
2022/11/06 08:53:02;;;;;;;;;;;10.20;76.80;;;;;;5078515;28;19912;-81
2022/11/06 08:55:32;;;;;;;;;;;10.40;76.60;;;;;;5089581;28;20013;-80
2022/11/06 08:57:57;;;;;;;;;;;10.50;76.50;;;;;;5097740;28;20003;-81
2022/11/06 09:00:23;;;;;;;;;;;10.50;76.30;;;;;;5096773;28;20432;-81
2022/11/06 09:02:48;;;;;;;;;;;10.60;75.90;;;;;;5094564;28;19916;-82
2022/11/06 09:05:14;;;;;;;;;;;10.50;76.60;;;;;;5079323;28;20404;-81
2022/11/06 09:07:39;;;;;;;;;;;10.60;76.40;;;;;;5094237;28;19919;-80
2022/11/06 09:10:05;;;;;;;;;;;10.60;76.50;;;;;;5095058;28;20332;-81
2022/11/06 09:12:30;;;;;;;;;;;10.70;76.10;;;;;;5090902;28;19918;-79
2022/11/06 09:14:56;;;;;;;;;;;10.80;76.10;;;;;;5085456;28;19916;-81
2022/11/06 09:17:23;;;;;;;;;;;10.90;75.70;;;;;;5073662;28;19939;-81
2022/11/06 09:19:49;;;;;;;;;;;11.10;75.60;;;;;;5083969;28;20275;-81
2022/11/06 09:22:15;;;;;;;;;;;11.10;74.70;;;;;;5092473;28;19938;-81
2022/11/06 09:24:40;;;;;;;;;;;11.30;74.50;;;;;;5084120;28;19928;-80
2022/11/06 09:27:06;;;;;;;;;;;11.30;74.50;;;;;;5091908;28;19916;-81
2022/11/06 09:29:31;;;;;;;;;;;11.30;74.10;;;;;;5089555;28;19912;-82
2022/11/06 09:31:56;;;;;;;;;;;11.50;73.80;;;;;;5080114;28;19908;-81
2022/11/06 09:34:22;;;;;;;;;;;11.40;73.60;;;;;;5069940;28;19916;-82
2022/11/06 09:36:47;;;;;;;;;;;11.40;73.50;;;;;;5092914;28;19923;-81
2022/11/06 09:39:13;;;;;;;;;;;11.30;74.30;;;;;;5090012;28;19912;-80
2022/11/06 09:41:38;;;;;;;;;;;11.40;74.10;;;;;;5087581;28;19916;-80
2022/11/06 09:44:24;;;;;;;;;;;11.50;73.80;;;;;;5070587;28;20010;-82
2022/11/06 09:46:49;;;;;;;;;;;11.60;74.00;;;;;;5090183;28;19935;-81
2022/11/06 09:49:27;;;;;;;;;;;11.70;73.20;;;;;;5095550;28;19912;-81
2022/11/06 09:52:12;;;;;;;;;;;11.60;73.70;;;;;;5093384;28;19958;-81
2022/11/06 09:54:40;;;;;;;;;;;11.70;72.90;;;;;;5100557;28;19936;-82
2022/11/06 09:57:10;;;;;;;;;;;11.70;73.30;;;;;;5088948;28;19913;-80
2022/11/06 09:59:37;;;;;;;;;;;11.60;73.20;;;;;;5098858;28;20398;-81
2022/11/06 10:02:10;;;;;;;;;;;11.80;73.10;;;;;;5089394;28;19916;-80
2022/11/06 10:04:44;;;;;;;;;;;11.80;72.30;;;;;;5073711;28;19924;-80
2022/11/06 10:07:26;;;;;;;;;;;11.80;72.90;;;;;;5082950;28;19913;-82
2022/11/06 10:09:51;;;;;;;;;;;11.90;72.50;;;;;;5076278;28;19938;-80
2022/11/06 10:12:30;;;;;;;;;;;11.90;72.80;;;;;;5079136;28;20034;-81
2022/11/06 10:14:56;;;;;;;;;;;12.00;72.80;;;;;;5090992;28;19912;-80
2022/11/06 10:17:28;;;;;;;;;;;12.00;73.00;;;;;;5092962;28;19975;-81
2022/11/06 10:20:20;;;;;;;;;;;11.90;72.80;;;;;;5094977;28;20332;-80
2022/11/06 10:22:58;;;;;;;;;;;11.80;72.70;;;;;;5084945;28;19962;-80
2022/11/06 10:25:33;;;;;;;;;;;11.70;74.00;;;;;;5076081;28;19923;-79
2022/11/06 10:27:58;;;;;;;;;;;11.90;73.10;;;;;;5086825;28;19913;-80
2022/11/06 10:30:24;;;;;;;;;;;11.80;73.50;;;;;;5091343;28;19967;-81
2022/11/06 10:32:53;;;;;;;;;;;11.80;73.60;;;;;;5088412;28;19912;-81
2022/11/06 10:35:22;;;;;;;;;;;11.80;73.20;;;;;;5083603;23;19924;-83
2022/11/06 10:37:56;;;;;;;;;;;12.00;73.30;;;;;;5051160;28;20293;-82
2022/11/06 10:40:23;;;;;;;;;;;12.10;72.50;;;;;;5074424;28;19912;-82
2022/11/06 10:42:54;;;;;;;;;;;12.10;72.40;;;;;;5066164;28;20011;-82
2022/11/06 10:45:20;;;;;;;;;;;12.20;72.10;;;;;;5075472;28;19920;-82
2022/11/06 10:47:48;;;;;;;;;;;12.30;71.60;;;;;;5072937;28;19931;-85
2022/11/06 10:50:15;;;;;;;;;;;12.50;71.20;;;;;;5074050;28;19912;-83
2022/11/06 10:52:46;;;;;;;;;;;12.50;71.00;;;;;;5051796;28;19909;-83
2022/11/06 10:55:30;;;;;;;;;;;12.50;71.50;;;;;;5071566;28;19913;-83
2022/11/06 10:58:03;;;;;;;;;;;12.40;71.80;;;;;;5090759;28;19917;-83
2022/11/06 11:00:30;;;;;;;;;;;12.50;71.40;;;;;;5074508;28;20007;-82
2022/11/06 11:02:57;;;;;;;;;;;12.60;71.10;;;;;;5069669;28;20386;-85
2022/11/06 11:05:24;;;;;;;;;;;12.50;71.70;;;;;;5075198;28;20311;-83
2022/11/06 11:07:50;;;;;;;;;;;12.50;70.80;;;;;;5071198;28;19912;-82
2022/11/06 11:10:26;;;;;;;;;;;12.50;71.10;;;;;;5049342;28;19913;-82
2022/11/06 11:12:52;;;;;;;;;;;12.50;70.90;;;;;;5069413;28;19909;-84
2022/11/06 11:15:19;;;;;;;;;;;12.60;70.40;;;;;;5062067;28;19947;-83
2022/11/06 11:18:03;;;;;;;;;;;12.60;69.30;;;;;;5072014;28;20011;-83
2022/11/06 11:20:33;;;;;;;;;;;12.50;70.40;;;;;;5077237;28;19916;-82
2022/11/06 11:23:16;;;;;;;;;;;12.50;70.70;;;;;;5053990;28;20348;-83
2022/11/06 11:25:43;;;;;;;;;;;12.50;70.40;;;;;;5069439;28;19983;-83
2022/11/06 11:28:19;;;;;;;;;;;12.50;71.20;;;;;;5065431;28;19949;-83
2022/11/06 11:30:49;;;;;;;;;;;12.50;70.60;;;;;;5068324;28;19913;-84
2022/11/06 11:33:18;;;;;;;;;;;12.60;70.50;;;;;;5068381;28;19912;-82
2022/11/06 11:35:46;;;;;;;;;;;12.50;70.00;;;;;;5074605;28;19916;-82
2022/11/06 11:38:14;;;;;;;;;;;12.30;69.90;;;;;;5068108;28;19913;-83
2022/11/06 11:40:39;;;;;;;;;;;12.50;69.40;;;;;;5055499;28;19956;-82
2022/11/06 11:43:19;;;;;;;;;;;12.30;69.90;;;;;;5067103;28;20282;-81
2022/11/06 11:46:11;;;;;;;;;;;12.30;70.00;;;;;;5051565;28;19912;-81
2022/11/06 11:48:43;;;;;;;;;;;12.30;69.80;;;;;;5050445;28;19938;-83
2022/11/06 11:51:31;;;;;;;;;;;12.50;68.70;;;;;;5074497;28;19912;-82
2022/11/06 11:54:17;;;;;;;;;;;12.50;67.90;;;;;;5054878;28;20442;-82
2022/11/06 11:56:51;;;;;;;;;;;12.50;67.40;;;;;;5058485;28;20406;-82
2022/11/06 11:59:35;;;;;;;;;;;12.50;68.20;;;;;;5047867;28;19913;-83
2022/11/06 12:02:13;;;;;;;;;;;12.70;67.30;;;;;;5063957;28;19921;-82
2022/11/06 12:04:40;;;;;;;;;;;12.60;68.40;;;;;;5047967;28;19919;-84
2022/11/06 12:07:06;;;;;;;;;;;12.60;68.20;;;;;;5055886;28;19917;-83
2022/11/06 12:09:33;;;;;;;;;;;12.50;68.80;;;;;;5068545;28;19939;-83
2022/11/06 12:12:00;;;;;;;;;;;12.50;69.10;;;;;;5038155;28;20546;-83
2022/11/06 12:14:36;;;;;;;;;;;12.60;68.50;;;;;;5048937;28;19928;-83
2022/11/06 12:17:05;;;;;;;;;;;12.70;67.10;;;;;;5045118;28;19967;-83
2022/11/06 12:19:31;;;;;;;;;;;12.60;67.30;;;;;;5074765;28;19930;-85
2022/11/06 12:21:58;;;;;;;;;;;12.60;67.90;;;;;;5076342;28;19924;-83
2022/11/06 12:24:28;;;;;;;;;;;12.60;68.00;;;;;;5076304;28;19912;-83
2022/11/06 12:26:58;;;;;;;;;;;12.60;66.80;;;;;;5085754;28;19960;-84
2022/11/06 12:29:32;;;;;;;;;;;12.70;67.00;;;;;;5076300;28;19966;-85
2022/11/06 12:32:00;;;;;;;;;;;12.60;67.80;;;;;;5069024;28;19912;-84
2022/11/06 12:34:32;;;;;;;;;;;12.70;67.20;;;;;;5053030;28;19920;-84
2022/11/06 12:37:30;;;;;;;;;;;12.70;67.10;;;;;;5044199;28;19922;-84
2022/11/06 12:40:00;;;;;;;;;;;12.50;67.10;;;;;;5051152;28;19917;-83
2022/11/06 12:42:28;;;;;;;;;;;12.50;66.60;;;;;;5049790;28;19929;-84
2022/11/06 12:44:54;;;;;;;;;;;12.40;67.40;;;;;;5048292;28;19934;-83
2022/11/06 12:47:25;;;;;;;;;;;12.20;67.90;;;;;;5069223;28;19961;-85
2022/11/06 12:50:00;;;;;;;;;;;12.00;68.80;;;;;;5069902;28;21173;-83
2022/11/06 12:52:39;;;;;;;;;;;12.00;69.00;;;;;;5064751;28;20280;-84
2022/11/06 12:55:22;;;;;;;;;;;12.10;68.80;;;;;;5056027;28;21189;-84
2022/11/06 12:57:56;;;;;;;;;;;12.10;68.80;;;;;;5059585;28;19916;-84
2022/11/06 13:00:24;;;;;;;;;;;12.00;69.00;;;;;;5053421;28;19948;-85
2022/11/06 13:02:53;;;;;;;;;;;12.00;68.10;;;;;;5070372;28;19913;-84
2022/11/06 13:05:38;;;;;;;;;;;12.10;67.00;;;;;;5057400;28;19909;-84
2022/11/06 13:08:10;;;;;;;;;;;12.10;67.10;;;;;;5071968;28;19955;-83
2022/11/06 13:10:56;;;;;;;;;;;12.10;67.60;;;;;;5074923;28;20271;-83
2022/11/06 13:13:28;;;;;;;;;;;12.10;68.10;;;;;;5008784;28;19912;-84
2022/11/06 13:16:07;;;;;;;;;;;12.00;67.40;;;;;;5057663;28;19924;-85
2022/11/06 13:18:38;;;;;;;;;;;12.00;67.30;;;;;;5067715;28;19912;-83
2022/11/06 13:21:27;;;;;;;;;;;12.00;67.20;;;;;;5038825;28;19924;-83
2022/11/06 13:24:08;;;;;;;;;;;12.20;66.80;;;;;;5053764;28;19966;-83
2022/11/06 13:26:40;;;;;;;;;;;12.30;66.30;;;;;;5074351;28;19913;-84
2022/11/06 13:29:08;;;;;;;;;;;12.50;65.80;;;;;;5055382;28;19913;-84
2022/11/06 13:31:34;;;;;;;;;;;12.60;64.70;;;;;;5076444;28;19913;-83
2022/11/06 13:34:00;;;;;;;;;;;12.50;64.10;;;;;;5072066;28;19912;-83
2022/11/06 13:36:27;;;;;;;;;;;12.60;64.10;;;;;;5052625;28;20502;-84
2022/11/06 13:38:54;;;;;;;;;;;12.50;63.90;;;;;;5064772;28;19921;-83
2022/11/06 13:41:26;;;;;;;;;;;12.50;64.40;;;;;;5068399;28;19967;-83
2022/11/06 13:43:54;;;;;;;;;;;12.40;64.40;;;;;;5049608;28;19916;-86
2022/11/06 13:46:58;;;;;;;;;;;12.40;64.60;;;;;;5080026;28;19917;-84
2022/11/06 13:49:39;;;;;;;;;;;12.50;64.50;;;;;;5016371;28;20309;-83
2022/11/06 13:52:14;;;;;;;;;;;12.50;63.90;;;;;;5009724;28;20376;-83
2022/11/06 13:54:58;;;;;;;;;;;12.40;64.40;;;;;;5035373;28;19913;-83
2022/11/06 13:57:41;;;;;;;;;;;12.50;64.20;;;;;;5075983;28;19912;-83
2022/11/06 14:00:14;;;;;;;;;;;12.50;64.30;;;;;;5068922;28;20114;-83
2022/11/06 14:02:40;;;;;;;;;;;12.50;63.90;;;;;;5057748;28;19940;-83
2022/11/06 14:05:20;;;;;;;;;;;12.50;63.50;;;;;;5051240;28;20360;-83
2022/11/06 14:07:47;;;;;;;;;;;12.60;63.20;;;;;;5073344;28;20356;-83
2022/11/06 14:10:23;;;;;;;;;;;12.60;63.10;;;;;;5049444;28;20352;-84
2022/11/06 14:12:49;;;;;;;;;;;12.20;64.30;;;;;;5046464;28;19913;-83
2022/11/06 14:15:20;;;;;;;;;;;12.20;64.80;;;;;;5069427;28;19912;-84
2022/11/06 14:17:53;;;;;;;;;;;12.10;65.30;;;;;;5055188;28;19962;-83
2022/11/06 14:20:26;;;;;;;;;;;12.10;65.20;;;;;;5070582;28;19920;-84
2022/11/06 14:22:52;;;;;;;;;;;12.10;64.90;;;;;;5062320;28;19967;-84
2022/11/06 14:25:26;;;;;;;;;;;12.20;64.30;;;;;;5067222;28;19959;-84
2022/11/06 14:27:51;;;;;;;;;;;12.30;64.00;;;;;;5061568;28;19948;-83
2022/11/06 14:30:37;;;;;;;;;;;12.30;64.10;;;;;;5052347;28;19986;-84
2022/11/06 14:33:08;;;;;;;;;;;12.30;64.70;;;;;;5063780;28;19931;-83
2022/11/06 14:35:34;;;;;;;;;;;12.40;63.00;;;;;;5056169;28;19921;-84
2022/11/06 14:38:08;;;;;;;;;;;12.50;63.30;;;;;;5042989;28;19920;-86
2022/11/06 14:40:35;;;;;;;;;;;12.50;61.80;;;;;;5074254;28;19913;-84
2022/11/06 14:43:10;;;;;;;;;;;12.50;60.40;;;;;;5078754;28;19966;-83
2022/11/06 14:45:35;;;;;;;;;;;12.50;60.60;;;;;;5063512;28;19966;-84
2022/11/06 14:48:01;;;;;;;;;;;12.60;58.60;;;;;;5065356;28;19920;-83
2022/11/06 14:50:32;;;;;;;;;;;12.50;59.50;;;;;;5068289;28;20292;-84
2022/11/06 14:53:01;;;;;;;;;;;12.50;59.30;;;;;;5057368;28;19973;-84
2022/11/06 14:55:38;;;;;;;;;;;12.50;59.50;;;;;;5063640;28;19916;-84
2022/11/06 14:58:12;;;;;;;;;;;12.40;59.20;;;;;;5064615;28;19916;-83
2022/11/06 15:00:42;;;;;;;;;;;12.30;60.40;;;;;;5068418;28;20430;-84
2022/11/06 15:03:19;;;;;;;;;;;12.20;60.20;;;;;;5049059;28;19921;-83
2022/11/06 15:05:45;;;;;;;;;;;12.20;59.80;;;;;;5049842;28;19966;-83
2022/11/06 15:08:10;;;;;;;;;;;12.20;60.80;;;;;;5067987;28;19948;-83
2022/11/06 15:10:42;;;;;;;;;;;12.10;61.70;;;;;;5065034;28;19920;-84
2022/11/06 15:13:10;;;;;;;;;;;12.10;59.50;;;;;;5051042;28;19912;-84
2022/11/06 15:15:39;;;;;;;;;;;12.30;59.70;;;;;;5065007;28;19948;-83
2022/11/06 15:18:04;;;;;;;;;;;12.30;60.50;;;;;;5048026;28;20280;-85